Time;durP1;ratioP1;P1;durP2;ratioP2;P2;SDS_P1;SDS_P2;PMS_P1;PMS_P2;Temp;Humidity;BMP_temperature;BMP_pressure;BME280_temperature;BME280_humidity;BME280_pressure;Samples;Min_cycle;Max_cycle;Signal;HPM_P1;HPM_P2
2022/07/05 00:00:18;;;;;;;29.63;12.20;;;20.70;41.70;;;;;;5052696;28;20874;-60
2022/07/05 00:02:45;;;;;;;33.73;12.60;;;20.70;41.50;;;;;;5059344;28;20462;-61
2022/07/05 00:05:12;;;;;;;33.40;12.27;;;20.70;41.50;;;;;;5049619;28;20458;-62
2022/07/05 00:07:39;;;;;;;30.97;12.67;;;20.60;41.60;;;;;;5046409;28;20477;-62
2022/07/05 00:10:07;;;;;;;30.60;13.53;;;20.60;41.60;;;;;;5051933;28;20490;-62
2022/07/05 00:12:35;;;;;;;33.80;13.20;;;20.60;41.80;;;;;;5052029;28;20462;-62
2022/07/05 00:15:03;;;;;;;31.97;12.33;;;20.60;41.80;;;;;;5055688;28;20485;-62
2022/07/05 00:17:30;;;;;;;31.20;12.40;;;20.60;41.90;;;;;;5046462;28;20473;-61
2022/07/05 00:19:57;;;;;;;34.10;13.83;;;20.60;41.90;;;;;;5051423;28;20478;-59
2022/07/05 00:22:24;;;;;;;33.07;12.67;;;20.60;41.90;;;;;;5053096;28;20462;-62
2022/07/05 00:24:51;;;;;;;35.80;14.57;;;20.60;41.90;;;;;;5047155;28;20457;-62
2022/07/05 00:27:17;;;;;;;36.20;14.23;;;20.60;41.80;;;;;;5053541;28;20458;-61
2022/07/05 00:29:44;;;;;;;35.90;14.80;;;20.60;41.80;;;;;;5047623;28;20478;-62
2022/07/05 00:32:12;;;;;;;40.27;14.70;;;20.50;42.00;;;;;;5056077;28;20473;-62
2022/07/05 00:34:39;;;;;;;34.27;12.57;;;20.50;42.00;;;;;;5052786;28;20489;-61
2022/07/05 00:37:06;;;;;;;33.00;12.33;;;20.60;42.00;;;;;;5050387;28;20465;-61
2022/07/05 00:39:32;;;;;;;32.73;12.40;;;20.60;41.90;;;;;;5050116;28;20470;-63
2022/07/05 00:42:00;;;;;;;34.90;12.67;;;20.60;41.80;;;;;;5051691;28;20458;-62
2022/07/05 00:44:32;;;;;;;32.97;11.57;;;20.60;41.70;;;;;;5056089;28;20540;-61
2022/07/05 00:46:59;;;;;;;32.60;12.80;;;20.60;41.70;;;;;;5055245;28;20457;-62
2022/07/05 00:49:27;;;;;;;32.67;12.07;;;20.60;41.50;;;;;;5051998;28;20500;-61
2022/07/05 00:51:54;;;;;;;33.77;13.50;;;20.50;41.30;;;;;;5059305;28;20461;-61
2022/07/05 00:54:21;;;;;;;33.37;13.20;;;20.50;41.30;;;;;;5050492;28;21048;-62
2022/07/05 00:56:48;;;;;;;36.37;13.43;;;20.50;41.40;;;;;;5051810;28;20461;-61
2022/07/05 00:59:15;;;;;;;37.77;14.73;;;20.40;41.30;;;;;;5050736;28;20543;-61
2022/07/05 01:01:42;;;;;;;31.10;12.30;;;20.40;40.90;;;;;;5057509;28;21237;-62
2022/07/05 01:04:09;;;;;;;36.90;13.17;;;20.40;41.00;;;;;;5061785;28;20464;-62
2022/07/05 01:06:37;;;;;;;42.60;13.60;;;20.40;41.00;;;;;;5065321;28;20465;-61
2022/07/05 01:09:04;;;;;;;37.30;12.90;;;20.40;41.50;;;;;;5049799;28;20469;-61
2022/07/05 01:11:31;;;;;;;34.20;12.63;;;20.40;40.90;;;;;;5054826;28;20485;-61
2022/07/05 01:14:00;;;;;;;39.77;12.80;;;20.30;41.40;;;;;;5052090;28;20485;-61
2022/07/05 01:16:27;;;;;;;36.70;13.50;;;20.30;40.90;;;;;;5060681;28;20458;-62
2022/07/05 01:18:54;;;;;;;38.90;13.57;;;20.30;40.60;;;;;;5056377;28;20470;-62
2022/07/05 01:21:23;;;;;;;35.87;14.07;;;20.20;40.50;;;;;;5050303;28;21167;-62
2022/07/05 01:23:52;;;;;;;37.60;14.10;;;20.10;40.40;;;;;;5048140;28;20457;-62
2022/07/05 01:26:20;;;;;;;39.63;14.50;;;20.10;40.80;;;;;;5058930;28;20483;-62
2022/07/05 01:28:46;;;;;;;35.93;13.73;;;20.00;40.30;;;;;;5051190;28;20470;-61
2022/07/05 01:31:13;;;;;;;38.73;15.20;;;19.90;41.00;;;;;;5056050;28;20489;-61
2022/07/05 01:33:40;;;;;;;37.30;14.40;;;19.80;40.50;;;;;;5047386;28;20485;-62
2022/07/05 01:36:07;;;;;;;35.70;15.30;;;19.80;41.10;;;;;;5055143;28;20539;-61
2022/07/05 01:38:34;;;;;;;41.23;15.37;;;19.80;41.40;;;;;;5049709;28;20465;-61
2022/07/05 01:41:02;;;;;;;40.07;14.90;;;19.80;41.00;;;;;;5052083;28;20474;-62
2022/07/05 01:43:29;;;;;;;42.43;15.90;;;19.70;41.00;;;;;;5049316;28;20459;-60
2022/07/05 01:45:57;;;;;;;37.63;15.70;;;19.60;40.90;;;;;;5063233;28;20462;-62
2022/07/05 01:48:24;;;;;;;38.20;14.13;;;19.60;40.80;;;;;;5052013;28;20454;-61
2022/07/05 01:50:54;;;;;;;37.63;14.70;;;19.40;41.00;;;;;;5055096;28;20473;-62
2022/07/05 01:53:23;;;;;;;45.53;16.80;;;19.40;41.40;;;;;;5050204;28;20858;-62
2022/07/05 01:55:50;;;;;;;39.07;13.73;;;19.30;41.40;;;;;;5047830;28;20454;-61
2022/07/05 01:58:18;;;;;;;38.63;15.00;;;19.30;41.20;;;;;;5053296;28;20462;-63
2022/07/05 02:00:47;;;;;;;37.37;15.17;;;19.20;41.40;;;;;;5043529;28;20477;-62
2022/07/05 02:03:14;;;;;;;35.77;15.23;;;19.20;41.80;;;;;;5052372;28;20461;-61
2022/07/05 02:05:42;;;;;;;36.77;15.60;;;19.10;41.90;;;;;;5054788;28;20457;-62
2022/07/05 02:08:08;;;;;;;44.53;16.30;;;19.10;41.80;;;;;;5049116;28;20487;-62
2022/07/05 02:10:35;;;;;;;42.50;16.70;;;19.00;41.70;;;;;;5051566;28;20494;-61
2022/07/05 02:13:02;;;;;;;38.20;14.17;;;18.90;41.70;;;;;;5058688;28;20984;-60
2022/07/05 02:15:33;;;;;;;41.43;15.20;;;19.00;42.20;;;;;;5053565;28;20489;-59
2022/07/05 02:18:00;;;;;;;42.93;15.17;;;19.00;42.30;;;;;;5055825;28;20489;-61
2022/07/05 02:20:26;;;;;;;42.00;16.57;;;18.90;41.50;;;;;;5058275;28;20478;-61
2022/07/05 02:22:53;;;;;;;37.50;14.80;;;18.90;41.40;;;;;;5061458;28;20471;-60
2022/07/05 02:25:20;;;;;;;37.13;14.20;;;18.80;42.00;;;;;;5050886;28;20840;-62
2022/07/05 02:27:47;;;;;;;42.23;14.77;;;18.80;42.10;;;;;;5050747;28;20476;-61
2022/07/05 02:30:15;;;;;;;45.43;14.10;;;18.90;42.40;;;;;;5055233;28;20477;-60
2022/07/05 02:32:43;;;;;;;43.27;13.93;;;18.90;41.70;;;;;;5052701;28;20470;-61
2022/07/05 02:35:11;;;;;;;47.40;15.47;;;18.80;41.60;;;;;;5055149;28;20481;-62
2022/07/05 02:37:39;;;;;;;36.33;14.50;;;18.80;41.60;;;;;;5045952;28;20897;-62
2022/07/05 02:40:07;;;;;;;37.57;14.77;;;18.70;41.60;;;;;;5050648;28;20489;-62
2022/07/05 02:42:34;;;;;;;43.87;17.07;;;18.70;41.70;;;;;;5055579;28;20462;-61
2022/07/05 02:45:01;;;;;;;45.20;17.73;;;18.70;42.00;;;;;;5049230;28;20454;-61
2022/07/05 02:47:30;;;;;;;42.40;18.80;;;18.70;42.20;;;;;;5058022;28;20458;-62
2022/07/05 02:49:58;;;;;;;39.17;18.53;;;18.60;42.40;;;;;;5055344;28;21013;-62
2022/07/05 02:52:25;;;;;;;41.50;19.10;;;18.60;42.40;;;;;;5058970;28;20466;-61
2022/07/05 02:54:52;;;;;;;38.77;18.00;;;18.60;42.50;;;;;;5056740;28;20476;-61
2022/07/05 02:57:18;;;;;;;44.27;20.00;;;18.60;42.40;;;;;;5058051;28;20457;-60
2022/07/05 02:59:45;;;;;;;40.67;19.63;;;18.60;42.40;;;;;;5048664;28;20972;-62
2022/07/05 03:02:12;;;;;;;41.83;19.77;;;18.50;42.30;;;;;;5057986;28;20480;-59
2022/07/05 03:04:39;;;;;;;42.90;20.70;;;18.50;42.40;;;;;;5054240;28;20973;-61
2022/07/05 03:07:07;;;;;;;45.50;20.13;;;18.50;42.40;;;;;;5056412;28;20819;-60
2022/07/05 03:09:33;;;;;;;43.63;21.20;;;18.50;42.60;;;;;;5050367;28;20458;-61
2022/07/05 03:12:00;;;;;;;44.30;21.93;;;18.50;42.60;;;;;;5046205;28;20473;-61
2022/07/05 03:14:27;;;;;;;48.97;21.30;;;18.40;42.50;;;;;;5052482;28;20484;-60
2022/07/05 03:16:54;;;;;;;45.77;23.10;;;18.40;42.60;;;;;;5049897;28;20472;-62
2022/07/05 03:19:20;;;;;;;54.50;25.40;;;18.50;42.80;;;;;;5051065;28;20469;-62
2022/07/05 03:21:47;;;;;;;54.43;24.67;;;18.40;42.80;;;;;;5052801;28;20486;-62
2022/07/05 03:24:15;;;;;;;48.77;24.13;;;18.40;42.90;;;;;;5049882;28;20526;-64
2022/07/05 03:26:42;;;;;;;47.47;23.00;;;18.40;43.10;;;;;;5052951;28;20468;-62
2022/07/05 03:29:09;;;;;;;49.03;22.93;;;18.40;43.20;;;;;;5040078;28;20516;-63
2022/07/05 03:31:36;;;;;;;49.57;24.17;;;18.40;43.20;;;;;;5046914;28;20852;-63
2022/07/05 03:34:03;;;;;;;52.43;26.30;;;18.40;43.10;;;;;;5051800;28;20466;-63
2022/07/05 03:36:30;;;;;;;58.27;23.97;;;18.40;43.20;;;;;;5043555;28;20473;-62
2022/07/05 03:38:57;;;;;;;47.77;22.87;;;18.40;43.20;;;;;;5041436;28;21451;-60
2022/07/05 03:41:25;;;;;;;45.70;21.93;;;18.40;43.10;;;;;;5045831;28;20489;-62
2022/07/05 03:43:52;;;;;;;48.07;21.90;;;18.40;43.20;;;;;;5044396;28;20454;-63
2022/07/05 03:46:18;;;;;;;41.50;18.73;;;18.40;42.80;;;;;;5046815;28;20466;-64
2022/07/05 03:48:45;;;;;;;44.77;19.67;;;18.40;42.60;;;;;;5043422;28;20458;-64
2022/07/05 03:51:12;;;;;;;42.20;19.27;;;18.30;42.70;;;;;;5046485;28;20511;-66
2022/07/05 03:53:39;;;;;;;43.63;20.80;;;18.30;42.70;;;;;;5043716;28;20454;-58
2022/07/05 03:56:05;;;;;;;47.33;20.83;;;18.30;42.60;;;;;;5052353;28;20481;-58
2022/07/05 03:58:33;;;;;;;44.20;21.23;;;18.30;42.60;;;;;;5048555;28;20466;-59
2022/07/05 04:01:00;;;;;;;45.80;20.40;;;18.30;42.60;;;;;;5046764;28;20864;-58
2022/07/05 04:03:27;;;;;;;41.50;18.50;;;18.40;42.50;;;;;;5055112;28;20465;-59
2022/07/05 04:05:54;;;;;;;41.70;19.40;;;18.40;42.70;;;;;;5051902;28;20461;-58
2022/07/05 04:08:22;;;;;;;43.30;18.60;;;18.50;42.70;;;;;;5050020;28;20465;-58
2022/07/05 04:10:48;;;;;;;43.43;19.20;;;18.50;42.60;;;;;;5050029;28;21054;-58
2022/07/05 04:13:15;;;;;;;42.33;19.53;;;18.50;42.50;;;;;;5048937;28;20489;-58
2022/07/05 04:15:44;;;;;;;40.87;19.13;;;18.60;42.50;;;;;;5047733;28;20482;-58
2022/07/05 04:18:10;;;;;;;41.53;19.47;;;18.60;42.30;;;;;;5049751;28;20457;-58
2022/07/05 04:20:37;;;;;;;40.60;18.97;;;18.70;42.40;;;;;;5049678;28;20785;-59
2022/07/05 04:23:04;;;;;;;37.90;16.63;;;18.70;42.40;;;;;;5049900;28;20465;-58
2022/07/05 04:25:31;;;;;;;40.33;18.27;;;18.80;42.10;;;;;;5050357;28;20462;-59
2022/07/05 04:27:58;;;;;;;40.20;17.53;;;18.80;41.90;;;;;;5051665;28;20541;-58
2022/07/05 04:30:26;;;;;;;45.10;18.70;;;18.90;41.90;;;;;;5047391;28;20489;-58
2022/07/05 04:32:54;;;;;;;38.40;16.73;;;19.00;41.90;;;;;;5049674;28;20477;-58
2022/07/05 04:35:21;;;;;;;38.90;16.73;;;19.20;41.60;;;;;;5049287;28;20485;-58
2022/07/05 04:37:48;;;;;;;39.10;15.37;;;19.40;41.70;;;;;;5048770;28;20493;-59
2022/07/05 04:40:16;;;;;;;33.53;12.73;;;19.90;40.70;;;;;;5049050;28;20963;-57
2022/07/05 04:42:43;;;;;;;34.00;12.50;;;20.10;39.40;;;;;;5056307;28;20466;-58
2022/07/05 04:45:10;;;;;;;34.20;13.10;;;20.30;38.10;;;;;;5046531;28;21000;-58
2022/07/05 04:47:37;;;;;;;35.53;13.17;;;20.40;37.40;;;;;;5053085;28;20472;-59
2022/07/05 04:50:06;;;;;;;35.37;13.50;;;20.50;36.90;;;;;;5049186;28;20481;-58
2022/07/05 04:52:33;;;;;;;33.23;12.13;;;20.60;36.50;;;;;;5046211;28;20467;-58
2022/07/05 04:55:00;;;;;;;32.90;11.30;;;20.90;36.00;;;;;;5049944;28;20484;-58
2022/07/05 04:57:27;;;;;;;31.50;11.00;;;21.30;34.60;;;;;;5047679;28;20472;-58
2022/07/05 04:59:53;;;;;;;32.67;10.50;;;21.90;33.00;;;;;;5048455;28;20504;-59
2022/07/05 05:02:20;;;;;;;35.07;11.57;;;21.90;32.40;;;;;;5048513;28;20473;-58
2022/07/05 05:04:47;;;;;;;33.00;10.70;;;21.90;32.10;;;;;;5038375;28;20466;-59
2022/07/05 05:07:15;;;;;;;33.50;10.20;;;22.30;31.90;;;;;;5046836;28;20463;-59
2022/07/05 05:09:42;;;;;;;34.90;9.00;;;22.80;30.00;;;;;;5043874;28;20457;-58
2022/07/05 05:12:09;;;;;;;31.30;9.30;;;22.80;28.50;;;;;;5047380;28;20549;-58
2022/07/05 05:14:36;;;;;;;36.67;10.30;;;22.70;29.30;;;;;;5044800;28;20468;-58
2022/07/05 05:17:03;;;;;;;41.40;11.93;;;23.60;27.90;;;;;;5043402;28;20462;-58
2022/07/05 05:19:30;;;;;;;29.60;8.13;;;24.40;26.50;;;;;;5048371;28;20458;-58
2022/07/05 05:21:56;;;;;;;31.20;7.70;;;25.70;22.90;;;;;;5045832;28;20462;-58
2022/07/05 05:24:25;;;;;;;31.70;7.83;;;26.90;19.00;;;;;;5051673;28;20470;-58
2022/07/05 05:26:51;;;;;;;29.43;7.97;;;27.70;16.70;;;;;;5047876;28;20462;-58
2022/07/05 05:29:18;;;;;;;29.20;7.73;;;28.60;15.10;;;;;;5050042;28;20462;-59
2022/07/05 05:31:45;;;;;;;28.60;6.90;;;29.40;13.40;;;;;;5048050;28;20481;-59
2022/07/05 05:34:12;;;;;;;27.90;7.00;;;30.10;12.40;;;;;;5047922;28;20472;-59
2022/07/05 05:36:39;;;;;;;28.00;6.63;;;30.80;10.40;;;;;;5048774;28;20482;-59
2022/07/05 05:39:05;;;;;;;29.33;6.43;;;31.50;9.40;;;;;;5048400;28;20960;-59
2022/07/05 05:41:34;;;;;;;33.20;7.70;;;32.30;8.20;;;;;;5045387;28;20487;-59
2022/07/05 05:44:00;;;;;;;31.70;7.57;;;32.90;7.50;;;;;;5050919;28;20457;-59
2022/07/05 05:46:27;;;;;;;29.40;6.77;;;33.50;6.30;;;;;;5047619;28;20458;-59
2022/07/05 05:48:54;;;;;;;27.27;7.20;;;34.00;5.30;;;;;;5048110;28;20489;-59
2022/07/05 05:51:20;;;;;;;27.87;7.03;;;34.40;4.70;;;;;;5048107;28;20500;-58
2022/07/05 05:53:47;;;;;;;29.07;6.90;;;35.00;3.80;;;;;;5043913;28;20463;-59
2022/07/05 05:56:14;;;;;;;26.80;6.13;;;35.60;2.90;;;;;;5048111;28;20489;-59
2022/07/05 05:58:42;;;;;;;30.00;6.30;;;36.20;2.00;;;;;;5051745;28;20469;-59
2022/07/05 06:01:09;;;;;;;28.20;6.17;;;36.80;1.00;;;;;;5046748;28;20492;-60
2022/07/05 06:03:35;;;;;;;24.80;5.57;;;37.30;1.00;;;;;;5048271;28;20469;-59
2022/07/05 06:06:02;;;;;;;25.77;5.47;;;37.90;1.00;;;;;;5047576;28;20819;-60
2022/07/05 06:08:29;;;;;;;27.10;5.30;;;37.00;1.00;;;;;;5050888;28;21183;-59
2022/07/05 06:10:56;;;;;;;25.37;5.37;;;36.10;1.00;;;;;;5046452;28;20500;-60
2022/07/05 06:13:22;;;;;;;25.10;5.37;;;36.80;1.00;;;;;;5047357;28;20460;-59
2022/07/05 06:15:50;;;;;;;26.10;5.30;;;36.60;1.00;;;;;;5047236;28;20485;-57
2022/07/05 06:18:17;;;;;;;26.50;6.27;;;35.40;1.00;;;;;;5048063;28;20454;-59
2022/07/05 06:20:45;;;;;;;26.37;6.50;;;34.00;1.90;;;;;;5046889;28;20481;-59
2022/07/05 06:23:11;;;;;;;29.27;6.90;;;32.60;3.30;;;;;;5045383;28;20462;-59
2022/07/05 06:25:38;;;;;;;27.47;7.23;;;31.70;5.00;;;;;;5039806;28;20450;-59
2022/07/05 06:28:06;;;;;;;29.20;8.10;;;31.00;6.40;;;;;;5049022;28;20972;-59
2022/07/05 06:30:34;;;;;;;28.50;8.10;;;31.00;7.60;;;;;;5047009;28;20759;-59
2022/07/05 06:33:03;;;;;;;29.60;7.90;;;31.30;7.00;;;;;;5043858;28;20837;-59
2022/07/05 06:35:31;;;;;;;27.77;7.17;;;32.60;6.30;;;;;;5047314;28;21015;-59
2022/07/05 06:38:00;;;;;;;31.30;7.20;;;34.70;3.20;;;;;;5051777;28;20461;-59
2022/07/05 06:40:29;;;;;;;28.10;7.67;;;35.70;1.30;;;;;;5047042;28;20482;-60
2022/07/05 06:42:58;;;;;;;28.47;7.60;;;35.10;1.00;;;;;;5038614;28;20462;-59
2022/07/05 06:45:26;;;;;;;32.03;8.53;;;33.70;2.10;;;;;;5045646;28;20463;-59
2022/07/05 06:47:57;;;;;;;30.13;7.40;;;32.80;3.80;;;;;;5052611;28;20493;-59
2022/07/05 06:50:25;;;;;;;27.20;7.47;;;33.60;3.90;;;;;;5038989;28;20477;-59
2022/07/05 06:52:52;;;;;;;27.20;7.57;;;35.80;1.80;;;;;;5046738;28;20458;-59
2022/07/05 06:55:19;;;;;;;29.00;6.67;;;38.10;1.00;;;;;;5045732;28;20488;-59
2022/07/05 06:57:46;;;;;;;29.60;7.63;;;39.90;1.00;;;;;;5042445;28;20472;-59
2022/07/05 07:00:14;;;;;;;27.30;7.00;;;41.40;1.00;;;;;;5046370;28;20482;-59
2022/07/05 07:02:41;;;;;;;26.20;6.13;;;42.60;1.00;;;;;;5041432;28;20468;-60
2022/07/05 07:05:09;;;;;;;27.30;6.10;;;43.90;1.00;;;;;;5046009;28;20477;-60
2022/07/05 07:10:22;;;;;;;25.47;5.83;;;45.80;1.00;;;;;;5047152;28;20472;-59
2022/07/05 07:12:48;;;;;;;24.07;5.77;;;46.50;1.00;;;;;;5047343;28;20462;-59
2022/07/05 07:15:15;;;;;;;24.60;5.60;;;47.20;1.00;;;;;;5050407;28;20964;-60
2022/07/05 07:17:42;;;;;;;23.30;4.70;;;47.80;1.00;;;;;;5044592;28;20900;-60
2022/07/05 07:20:09;;;;;;;24.93;4.90;;;48.40;1.00;;;;;;5046608;28;20490;-60
2022/07/05 07:22:37;;;;;;;22.37;4.10;;;49.10;1.00;;;;;;5046808;28;20462;-61
2022/07/05 07:25:08;;;;;;;23.20;5.67;;;50.00;1.00;;;;;;5048510;28;20461;-60
2022/07/05 07:27:42;;;;;;;22.47;4.30;;;50.40;1.00;;;;;;5048085;28;20465;-61
2022/07/05 07:30:10;;;;;;;21.30;4.20;;;50.90;1.00;;;;;;5048931;28;21013;-60
2022/07/05 07:32:36;;;;;;;22.97;3.90;;;51.30;1.00;;;;;;5047826;28;20786;-60
2022/07/05 07:35:03;;;;;;;24.00;4.20;;;51.80;1.00;;;;;;5050139;28;20461;-60
2022/07/05 07:37:30;;;;;;;23.30;4.80;;;52.30;1.00;;;;;;5050506;28;20481;-60
2022/07/05 07:39:59;;;;;;;25.07;4.47;;;52.40;1.00;;;;;;5050885;28;21193;-60
2022/07/05 07:42:26;;;;;;;23.03;3.60;;;52.70;1.00;;;;;;5046817;28;20473;-60
2022/07/05 07:44:52;;;;;;;21.10;4.00;;;53.00;1.00;;;;;;5053170;28;20492;-60
2022/07/05 07:47:19;;;;;;;20.97;4.10;;;53.30;1.00;;;;;;5046677;28;20454;-60
2022/07/05 07:49:46;;;;;;;22.23;3.47;;;53.50;1.00;;;;;;5050618;28;20473;-60
2022/07/05 07:52:13;;;;;;;20.80;2.97;;;53.80;1.00;;;;;;5050028;28;20474;-61
2022/07/05 07:54:40;;;;;;;23.70;3.20;;;54.00;1.00;;;;;;5049472;28;20457;-60
2022/07/05 07:57:08;;;;;;;23.37;3.20;;;54.10;1.00;;;;;;5049185;28;20481;-61
2022/07/05 07:59:35;;;;;;;21.93;3.00;;;54.30;1.00;;;;;;5054400;28;20465;-60
2022/07/05 08:02:02;;;;;;;21.60;3.70;;;54.50;1.00;;;;;;5046917;28;20466;-60
2022/07/05 08:04:29;;;;;;;20.40;3.20;;;54.70;1.00;;;;;;5050033;28;20988;-60
2022/07/05 08:06:56;;;;;;;20.40;3.33;;;55.00;1.00;;;;;;5048997;28;20458;-60
2022/07/05 08:09:22;;;;;;;20.63;2.80;;;55.30;1.00;;;;;;5049507;28;20458;-61
2022/07/05 08:11:49;;;;;;;19.50;2.40;;;55.60;1.00;;;;;;5076462;22;20484;-65
2022/07/05 08:14:19;;;;;;;20.83;2.50;;;55.80;1.00;;;;;;5072535;28;20456;-65
2022/07/05 08:16:48;;;;;;;19.27;2.90;;;56.10;1.00;;;;;;5069592;28;20476;-66
2022/07/05 08:21:59;;;;;;;18.93;2.50;;;56.50;1.00;;;;;;5069658;28;20566;-66
2022/07/05 08:24:25;;;;;;;18.27;2.30;;;56.90;1.00;;;;;;5067893;28;20488;-66
2022/07/05 08:26:52;;;;;;;20.23;2.27;;;56.90;1.00;;;;;;5066977;28;20479;-65
2022/07/05 08:29:20;;;;;;;19.00;1.90;;;57.20;1.00;;;;;;5068443;28;20472;-66
2022/07/05 08:31:51;;;;;;;19.97;2.30;;;57.30;1.00;;;;;;5070231;28;20988;-66
2022/07/05 08:34:18;;;;;;;18.93;2.03;;;57.60;1.00;;;;;;5074050;28;20516;-65
2022/07/05 08:36:45;;;;;;;19.80;2.63;;;57.40;1.00;;;;;;5074574;28;20205;-66
2022/07/05 08:39:13;;;;;;;17.93;2.03;;;57.70;1.00;;;;;;5072103;28;20469;-66
2022/07/05 08:41:41;;;;;;;20.70;2.20;;;57.80;1.00;;;;;;5068431;28;20602;-66
2022/07/05 08:44:09;;;;;;;19.45;2.25;;;58.10;1.00;;;;;;5070112;28;20216;-66
2022/07/05 08:46:39;;;;;;;17.93;2.20;;;58.30;1.00;;;;;;5063811;28;20191;-65
2022/07/05 08:49:06;;;;;;;18.15;2.20;;;58.50;1.00;;;;;;5066194;28;20197;-64
2022/07/05 08:51:37;;;;;;;18.20;2.00;;;58.60;1.00;;;;;;5073254;28;20237;-66
2022/07/05 08:54:04;;;;;;;18.05;1.80;;;58.60;1.00;;;;;;5073293;28;20211;-66
2022/07/05 08:56:31;;;;;;;20.67;2.03;;;58.60;1.00;;;;;;5062930;28;20879;-66
2022/07/05 08:58:59;;;;;;;18.10;1.77;;;58.60;1.00;;;;;;5071924;28;20200;-65
2022/07/05 09:01:26;;;;;;;18.10;1.70;;;58.70;1.00;;;;;;5070341;28;20218;-65
2022/07/05 09:03:55;;;;;;;17.92;1.92;;;58.90;1.00;;;;;;5073012;28;20206;-65
2022/07/05 09:06:25;;;;;;;19.08;1.98;;;58.90;1.00;;;;;;5066439;28;20190;-66
2022/07/05 09:08:55;;;;;;;18.10;2.13;;;58.70;1.00;;;;;;5070526;28;20676;-65
2022/07/05 09:11:25;;;;;;;19.10;2.08;;;58.50;1.00;;;;;;5057198;28;20713;-65
2022/07/05 09:13:52;;;;;;;19.15;2.08;;;58.30;1.00;;;;;;5073215;28;20254;-66
2022/07/05 09:16:19;;;;;;;17.65;1.77;;;58.30;1.00;;;;;;5068023;28;20218;-66
2022/07/05 09:18:48;;;;;;;18.43;2.17;;;57.50;1.00;;;;;;5069654;28;20202;-65
2022/07/05 09:21:21;;;;;;;19.30;1.90;;;53.70;1.00;;;;;;5067754;28;20484;-65
2022/07/05 09:23:56;;;;;;;21.67;2.13;;;50.90;1.00;;;;;;5071818;28;20488;-65
2022/07/05 09:26:27;;;;;;;20.17;2.23;;;50.90;1.00;;;;;;5070715;28;21215;-65
2022/07/05 09:28:58;;;;;;;20.67;2.23;;;48.20;1.00;;;;;;5074634;28;20461;-65
2022/07/05 09:31:29;;;;;;;20.87;2.27;;;46.00;1.00;;;;;;5063423;28;20508;-65
2022/07/05 09:34:05;;;;;;;20.63;2.10;;;45.50;1.00;;;;;;5066556;28;21130;-64
2022/07/05 09:36:51;;;;;;;21.07;2.40;;;45.00;1.00;;;;;;5062208;28;21119;-64
2022/07/05 09:39:19;;;;;;;23.00;2.50;;;43.70;1.00;;;;;;5067593;28;20461;-65
2022/07/05 09:41:46;;;;;;;22.83;2.97;;;42.30;1.00;;;;;;5067058;28;20860;-65
2022/07/05 09:44:25;;;;;;;22.40;3.30;;;41.30;1.00;;;;;;5066622;28;20461;-64
2022/07/05 09:47:09;;;;;;;24.10;2.70;;;40.30;1.00;;;;;;5072314;28;20510;-64
2022/07/05 09:49:36;;;;;;;23.50;2.50;;;39.20;1.00;;;;;;5063284;28;20457;-64
2022/07/05 09:52:05;;;;;;;23.40;2.50;;;38.60;1.00;;;;;;5067879;28;20485;-64
2022/07/05 09:54:32;;;;;;;22.57;2.57;;;37.90;1.00;;;;;;5066259;28;20468;-64
2022/07/05 09:56:59;;;;;;;25.10;3.20;;;37.20;1.00;;;;;;5071159;28;20531;-64
2022/07/05 09:59:26;;;;;;;24.03;3.10;;;36.60;1.00;;;;;;5071225;28;20468;-65
2022/07/05 10:01:53;;;;;;;23.63;2.87;;;36.10;1.00;;;;;;5065762;28;20465;-65
2022/07/05 10:04:20;;;;;;;23.33;2.60;;;35.50;1.00;;;;;;5063691;28;21218;-64
2022/07/05 10:06:47;;;;;;;23.43;2.73;;;35.00;1.00;;;;;;5069978;28;20461;-64
2022/07/05 10:09:15;;;;;;;22.90;2.57;;;34.60;1.00;;;;;;5066301;28;20457;-64
2022/07/05 10:11:44;;;;;;;23.40;3.10;;;34.40;1.00;;;;;;5076173;28;20506;-64
2022/07/05 10:14:15;;;;;;;24.10;2.90;;;34.30;1.00;;;;;;5068278;28;20510;-64
2022/07/05 10:16:45;;;;;;;25.07;3.27;;;34.10;1.00;;;;;;5071061;28;20481;-65
2022/07/05 10:19:17;;;;;;;24.07;2.70;;;33.90;1.00;;;;;;5068394;28;20457;-65
2022/07/05 10:21:45;;;;;;;24.87;3.40;;;33.70;1.00;;;;;;5066337;28;20480;-65
2022/07/05 10:24:12;;;;;;;28.03;5.50;;;33.50;1.00;;;;;;5060659;28;20464;-64
2022/07/05 10:26:41;;;;;;;23.70;2.63;;;33.40;1.00;;;;;;5067389;28;20445;-64
2022/07/05 10:29:10;;;;;;;24.63;2.80;;;33.20;1.00;;;;;;5070367;28;20514;-64
2022/07/05 10:31:37;;;;;;;24.50;2.60;;;33.00;1.00;;;;;;5061083;28;20465;-64
2022/07/05 10:34:08;;;;;;;24.20;2.90;;;32.90;1.00;;;;;;5069232;28;21150;-64
2022/07/05 10:36:35;;;;;;;26.50;3.30;;;32.80;1.00;;;;;;5073052;28;20487;-64
2022/07/05 10:39:03;;;;;;;25.10;3.50;;;32.60;1.00;;;;;;5069960;28;20511;-64
2022/07/05 10:41:31;;;;;;;25.10;3.17;;;32.50;1.00;;;;;;5066598;28;20476;-64
2022/07/05 10:43:59;;;;;;;24.57;2.67;;;32.50;1.00;;;;;;5068274;28;20931;-64
2022/07/05 10:46:37;;;;;;;26.13;3.00;;;32.50;1.00;;;;;;5065580;28;20594;-65
2022/07/05 10:49:16;;;;;;;24.47;2.90;;;32.40;1.00;;;;;;5071648;28;20457;-64
2022/07/05 10:51:43;;;;;;;23.70;2.83;;;32.20;1.00;;;;;;5062517;28;20592;-64
2022/07/05 10:54:10;;;;;;;24.30;2.93;;;32.00;1.00;;;;;;5067067;28;20486;-64
2022/07/05 10:56:39;;;;;;;25.80;2.63;;;31.90;1.00;;;;;;5071909;28;20484;-63
2022/07/05 10:59:11;;;;;;;24.57;2.67;;;31.80;1.00;;;;;;5070721;28;20980;-64
2022/07/05 11:01:42;;;;;;;25.50;3.13;;;31.70;1.00;;;;;;5061531;28;20469;-64
2022/07/05 11:04:22;;;;;;;25.33;2.60;;;31.80;1.00;;;;;;5070779;28;20462;-63
2022/07/05 11:06:49;;;;;;;26.50;3.00;;;31.70;1.00;;;;;;5077195;28;20461;-64
2022/07/05 11:09:20;;;;;;;24.60;2.80;;;31.60;1.00;;;;;;5080169;28;20448;-64
2022/07/05 11:12:01;;;;;;;24.80;3.03;;;31.50;1.00;;;;;;5070673;28;20488;-64
2022/07/05 11:14:35;;;;;;;24.80;2.80;;;31.40;1.00;;;;;;5064962;28;20453;-64
2022/07/05 11:17:29;;;;;;;26.03;2.80;;;31.30;1.00;;;;;;5070295;28;20563;-64
2022/07/05 11:20:14;;;;;;;25.00;2.57;;;31.30;1.00;;;;;;5076225;28;20452;-64
2022/07/05 11:22:43;;;;;;;24.70;2.60;;;31.30;1.00;;;;;;5078151;28;20477;-62
2022/07/05 11:25:11;;;;;;;24.77;2.47;;;31.30;1.00;;;;;;5067772;28;20480;-63
2022/07/05 11:28:05;;;;;;;25.77;2.50;;;31.30;1.00;;;;;;5069438;28;20457;-65
2022/07/05 11:30:48;;;;;;;24.00;3.00;;;31.30;1.00;;;;;;5063645;28;20549;-66
2022/07/05 11:33:48;;;;;;;25.20;2.50;;;31.40;1.00;;;;;;5069644;28;20453;-65
2022/07/05 11:36:25;;;;;;;26.63;3.40;;;31.40;1.00;;;;;;5073422;28;20473;-62
2022/07/05 11:39:10;;;;;;;25.00;2.80;;;31.30;1.00;;;;;;5073981;28;20480;-65
2022/07/05 11:41:39;;;;;;;23.80;2.77;;;31.20;1.00;;;;;;5065299;28;21042;-65
2022/07/05 11:44:07;;;;;;;24.90;2.87;;;31.20;1.00;;;;;;5074035;28;20454;-65
2022/07/05 11:46:36;;;;;;;25.30;2.77;;;31.10;1.00;;;;;;5067409;28;20542;-65
2022/07/05 11:49:02;;;;;;;24.33;2.83;;;31.10;1.00;;;;;;5070570;28;20492;-65
2022/07/05 11:51:29;;;;;;;24.80;3.30;;;31.10;1.00;;;;;;5069923;28;20481;-65
2022/07/05 11:53:57;;;;;;;24.80;2.70;;;31.10;1.00;;;;;;5071687;28;20575;-65
2022/07/05 11:56:23;;;;;;;25.43;3.00;;;31.10;1.00;;;;;;5060855;28;20457;-63
2022/07/05 11:58:50;;;;;;;25.53;2.97;;;30.90;1.00;;;;;;5069840;28;20856;-65
2022/07/05 12:01:17;;;;;;;26.40;2.83;;;30.80;1.00;;;;;;5069904;28;21014;-63
2022/07/05 12:03:56;;;;;;;26.17;3.63;;;30.60;1.00;;;;;;5063631;28;20465;-65
2022/07/05 12:06:24;;;;;;;24.90;3.07;;;30.50;1.00;;;;;;5067749;28;20964;-66
2022/07/05 12:09:03;;;;;;;24.87;3.37;;;30.50;1.00;;;;;;5067281;28;20739;-63
2022/07/05 12:14:21;;;;;;;23.70;3.33;;;30.40;1.00;;;;;;5069541;28;21002;-66
2022/07/05 12:16:48;;;;;;;25.27;3.30;;;30.40;1.00;;;;;;5065212;28;20469;-63
2022/07/05 12:19:24;;;;;;;23.90;3.37;;;30.40;1.60;;;;;;5077608;28;20456;-63
2022/07/05 12:22:14;;;;;;;24.00;3.30;;;30.30;1.90;;;;;;5063969;28;20477;-63
2022/07/05 12:24:41;;;;;;;25.73;3.40;;;30.40;2.90;;;;;;5069500;28;20460;-65
2022/07/05 12:27:10;;;;;;;23.70;3.50;;;30.40;1.70;;;;;;5069718;28;20465;-65
2022/07/05 12:29:37;;;;;;;27.27;3.03;;;30.20;2.30;;;;;;5069038;28;20458;-63
2022/07/05 12:32:08;;;;;;;24.90;4.90;;;30.10;2.20;;;;;;5070377;28;20491;-65
2022/07/05 12:34:36;;;;;;;24.80;3.10;;;29.90;1.70;;;;;;5077663;28;20488;-63
2022/07/05 12:37:05;;;;;;;27.27;3.50;;;29.90;2.50;;;;;;5069906;28;20456;-65
2022/07/05 12:39:31;;;;;;;24.20;4.20;;;29.80;2.20;;;;;;5062536;28;20972;-66
2022/07/05 12:41:58;;;;;;;24.80;3.27;;;29.80;1.60;;;;;;5068674;28;20487;-63
2022/07/05 12:44:25;;;;;;;26.83;2.83;;;29.90;1.70;;;;;;5072304;28;20491;-63
2022/07/05 12:46:52;;;;;;;24.27;3.50;;;29.80;1.00;;;;;;5063549;28;20469;-65
2022/07/05 12:49:19;;;;;;;25.23;2.90;;;29.80;1.80;;;;;;5067744;28;20496;-65
2022/07/05 12:51:47;;;;;;;24.50;2.73;;;29.80;1.70;;;;;;5073086;28;20487;-63